AFL797 URSS-UUEE
Flight info
| Callsign | AFL797 |
|---|---|
| Flight time | N/A |
| Altitude | 36000 |
| Route | URSS SID ADNET W79 AMEPU A100 KL L91 KANON T748 PEPOR T611 TUKMO N50 OLOPI STAR UUEE |
| Aircraft | A320/M-ACIO/L |
Departure
| Time | 2026-05-05 11:32 |
|---|---|
| Airport | Sochi International Airport (URSS) |
Arrival
| Time | N/A |
|---|---|
| Airport | Sheremetyevo International Airport (UUEE) |
| Time | Latitude | Longitude | Altitude | Speed | Heading |
|---|---|---|---|---|---|
| 2026-05-05 11:00 | 43.44856 | 39.94500 | 78 ft | 0 kts | 334° |
| 2026-05-05 11:22 | 43.44846 | 39.94506 | 68 ft | 2 kts | 334° |
| 2026-05-05 11:23 | 43.44831 | 39.94516 | 78 ft | 2 kts | 336° |
| 2026-05-05 11:23 | 43.44816 | 39.94525 | 70 ft | 2 kts | 341° |
| 2026-05-05 11:23 | 43.44800 | 39.94530 | 75 ft | 2 kts | 6° |
| 2026-05-05 11:23 | 43.44787 | 39.94520 | 69 ft | 1 kts | 65° |
| 2026-05-05 11:24 | 43.44785 | 39.94514 | 70 ft | 0 kts | 67° |
| 2026-05-05 11:29 | 43.44794 | 39.94544 | 75 ft | 13 kts | 67° |
| 2026-05-05 11:29 | 43.44839 | 39.94720 | 85 ft | 24 kts | 71° |
| 2026-05-05 11:29 | 43.44891 | 39.94960 | 84 ft | 25 kts | 72° |
| 2026-05-05 11:29 | 43.44967 | 39.95198 | 89 ft | 29 kts | 64° |
| 2026-05-05 11:30 | 43.45046 | 39.95426 | 90 ft | 12 kts | 63° |
| 2026-05-05 11:30 | 43.45054 | 39.95509 | 91 ft | 5 kts | 137° |
| 2026-05-05 11:30 | 43.45046 | 39.95519 | 92 ft | 0 kts | 139° |
| 2026-05-05 11:30 | 43.45043 | 39.95523 | 92 ft | 3 kts | 136° |
| 2026-05-05 11:31 | 43.44998 | 39.95555 | 91 ft | 11 kts | 169° |
| 2026-05-05 11:31 | 43.44947 | 39.95511 | 92 ft | 11 kts | 236° |
| 2026-05-05 11:31 | 43.44934 | 39.95472 | 91 ft | 0 kts | 245° |
| 2026-05-05 11:32 | 43.44891 | 39.95347 | 90 ft | 60 kts | 244° |
| 2026-05-05 11:32 | 43.44567 | 39.94380 | 82 ft | 156 kts | 246° |
| 2026-05-05 11:32 | 43.44047 | 39.92860 | 657 ft | 187 kts | 245° |
| 2026-05-05 11:32 | 43.43438 | 39.91150 | 1416 ft | 213 kts | 245° |
| 2026-05-05 11:33 | 43.42756 | 39.89140 | 2265 ft | 251 kts | 253° |
| 2026-05-05 11:33 | 43.42396 | 39.86578 | 2883 ft | 297 kts | 263° |
| 2026-05-05 11:33 | 43.42132 | 39.83514 | 3105 ft | 346 kts | 263° |
| 2026-05-05 11:33 | 43.41742 | 39.80072 | 3580 ft | 375 kts | 260° |
| 2026-05-05 11:34 | 43.41221 | 39.76569 | 4962 ft | 368 kts | 258° |
| 2026-05-05 11:34 | 43.40650 | 39.73157 | 6483 ft | 362 kts | 257° |
| 2026-05-05 11:34 | 43.40078 | 39.69888 | 8092 ft | 353 kts | 256° |
| 2026-05-05 11:34 | 43.39617 | 39.66540 | 9212 ft | 364 kts | 266° |
| 2026-05-05 11:35 | 43.39875 | 39.62994 | 9896 ft | 383 kts | 285° |
| 2026-05-05 11:35 | 43.41004 | 39.59700 | 11138 ft | 380 kts | 304° |
| 2026-05-05 11:35 | 43.42819 | 39.57132 | 12785 ft | 370 kts | 324° |
| 2026-05-05 11:35 | 43.45083 | 39.55563 | 14328 ft | 363 kts | 343° |
| 2026-05-05 11:36 | 43.47587 | 39.55034 | 15376 ft | 367 kts | 358° |
| 2026-05-05 11:36 | 43.50163 | 39.54842 | 16360 ft | 374 kts | 355° |
| 2026-05-05 11:36 | 43.52760 | 39.54303 | 17362 ft | 380 kts | 348° |
| 2026-05-05 11:36 | 43.55339 | 39.53354 | 18311 ft | 387 kts | 343° |
| 2026-05-05 11:37 | 43.57899 | 39.52127 | 19177 ft | 392 kts | 340° |
| 2026-05-05 11:37 | 43.60427 | 39.50800 | 20042 ft | 396 kts | 342° |
| 2026-05-05 11:37 | 43.63136 | 39.50067 | 20891 ft | 399 kts | 358° |
| 2026-05-05 11:37 | 43.65903 | 39.50388 | 21724 ft | 401 kts | 15° |
| 2026-05-05 11:38 | 43.68580 | 39.51551 | 22566 ft | 405 kts | 20° |
| 2026-05-05 11:38 | 43.71265 | 39.52816 | 23415 ft | 409 kts | 21° |
| 2026-05-05 11:38 | 43.73974 | 39.54099 | 24149 ft | 413 kts | 21° |
| 2026-05-05 11:38 | 43.76705 | 39.55387 | 24914 ft | 415 kts | 21° |
| 2026-05-05 11:39 | 43.79456 | 39.56682 | 25631 ft | 419 kts | 22° |
| 2026-05-05 11:39 | 43.82230 | 39.57986 | 26337 ft | 422 kts | 22° |
| 2026-05-05 11:39 | 43.85024 | 39.59300 | 26988 ft | 426 kts | 22° |
| 2026-05-05 11:39 | 43.87800 | 39.60608 | 27636 ft | 429 kts | 22° |
| 2026-05-05 11:40 | 43.90642 | 39.61946 | 28267 ft | 432 kts | 23° |
| 2026-05-05 11:40 | 43.93505 | 39.63296 | 28832 ft | 436 kts | 23° |
| 2026-05-05 11:40 | 43.96386 | 39.64657 | 29477 ft | 438 kts | 24° |
| 2026-05-05 11:40 | 43.99278 | 39.66024 | 30007 ft | 442 kts | 24° |
| 2026-05-05 11:41 | 44.02203 | 39.67412 | 30441 ft | 445 kts | 24° |
| 2026-05-05 11:41 | 44.05144 | 39.68810 | 30884 ft | 450 kts | 23° |
| 2026-05-05 11:41 | 44.08119 | 39.70224 | 31392 ft | 453 kts | 23° |
| 2026-05-05 11:41 | 44.11104 | 39.71642 | 31924 ft | 454 kts | 22° |
| 2026-05-05 11:42 | 44.14089 | 39.73064 | 32496 ft | 453 kts | 22° |
| 2026-05-05 11:42 | 44.17076 | 39.74490 | 33089 ft | 453 kts | 22° |
| 2026-05-05 11:42 | 44.20060 | 39.75917 | 33665 ft | 453 kts | 22° |
| 2026-05-05 11:42 | 44.23044 | 39.77347 | 34191 ft | 453 kts | 21° |
| 2026-05-05 11:43 | 44.26031 | 39.78778 | 34582 ft | 455 kts | 21° |
| 2026-05-05 11:43 | 44.29033 | 39.80217 | 34846 ft | 457 kts | 21° |
| 2026-05-05 11:43 | 44.32033 | 39.81645 | 34932 ft | 455 kts | 20° |
| 2026-05-05 11:44 | 44.38269 | 39.83173 | 34939 ft | 458 kts | 4° |
| 2026-05-05 11:44 | 44.43568 | 39.82700 | 34938 ft | 461 kts | 354° |
| 2026-05-05 11:45 | 44.50953 | 39.81264 | 34940 ft | 460 kts | 354° |
| 2026-05-05 11:45 | 44.57292 | 39.80042 | 34944 ft | 459 kts | 354° |
| 2026-05-05 11:46 | 44.62552 | 39.79017 | 34945 ft | 459 kts | 354° |
| 2026-05-05 11:46 | 44.68874 | 39.77780 | 34946 ft | 458 kts | 354° |
| 2026-05-05 11:47 | 44.75184 | 39.76542 | 34948 ft | 457 kts | 355° |
| 2026-05-05 11:47 | 44.81486 | 39.75303 | 34946 ft | 457 kts | 355° |
| 2026-05-05 11:48 | 44.90934 | 39.73442 | 34948 ft | 456 kts | 355° |
| 2026-05-05 11:48 | 44.97224 | 39.72199 | 34948 ft | 456 kts | 355° |
| 2026-05-05 11:49 | 45.03510 | 39.70954 | 34954 ft | 456 kts | 355° |
| 2026-05-05 11:49 | 45.09748 | 39.69716 | 34956 ft | 455 kts | 355° |
| 2026-05-05 11:50 | 45.16021 | 39.68469 | 34960 ft | 455 kts | 355° |
| 2026-05-05 11:50 | 45.22303 | 39.67475 | 34957 ft | 452 kts | 2° |
| 2026-05-05 11:51 | 45.28566 | 39.67789 | 34958 ft | 450 kts | 6° |
| 2026-05-05 11:51 | 45.34830 | 39.68199 | 34972 ft | 450 kts | 6° |
| 2026-05-05 11:52 | 45.41085 | 39.68616 | 34971 ft | 450 kts | 6° |
| 2026-05-05 11:52 | 45.47342 | 39.69044 | 34971 ft | 450 kts | 6° |
| 2026-05-05 11:53 | 45.53572 | 39.69472 | 34966 ft | 450 kts | 6° |
| 2026-05-05 11:53 | 45.59826 | 39.69895 | 34975 ft | 450 kts | 6° |
| 2026-05-05 11:54 | 45.66088 | 39.70316 | 34973 ft | 450 kts | 6° |
| 2026-05-05 11:54 | 45.72346 | 39.70739 | 34971 ft | 450 kts | 6° |
| 2026-05-05 11:55 | 45.78604 | 39.71163 | 34976 ft | 449 kts | 6° |
| 2026-05-05 11:55 | 45.84851 | 39.71588 | 34972 ft | 449 kts | 6° |
| 2026-05-05 11:56 | 45.91057 | 39.72012 | 34972 ft | 449 kts | 6° |
| 2026-05-05 11:56 | 45.97303 | 39.72440 | 34969 ft | 449 kts | 6° |
| 2026-05-05 11:57 | 46.03555 | 39.72870 | 34972 ft | 449 kts | 6° |
| 2026-05-05 11:57 | 46.09807 | 39.73300 | 34971 ft | 450 kts | 6° |
| 2026-05-05 11:58 | 46.16020 | 39.73729 | 34972 ft | 450 kts | 6° |
| 2026-05-05 11:58 | 46.22279 | 39.74162 | 34977 ft | 450 kts | 6° |
| 2026-05-05 11:59 | 46.28535 | 39.74595 | 34983 ft | 450 kts | 6° |
| 2026-05-05 11:59 | 46.34793 | 39.75029 | 34986 ft | 450 kts | 6° |
| 2026-05-05 12:00 | 46.41055 | 39.75523 | 34990 ft | 450 kts | 7° |
| 2026-05-05 12:00 | 46.47299 | 39.76087 | 34992 ft | 449 kts | 7° |
| 2026-05-05 12:01 | 46.53536 | 39.76640 | 34992 ft | 449 kts | 7° |
| 2026-05-05 12:01 | 46.59763 | 39.77185 | 34990 ft | 448 kts | 7° |
| 2026-05-05 12:02 | 46.65993 | 39.77731 | 34990 ft | 448 kts | 7° |
| 2026-05-05 12:02 | 46.72173 | 39.78274 | 34987 ft | 447 kts | 7° |
| 2026-05-05 12:03 | 46.78379 | 39.78820 | 34983 ft | 447 kts | 7° |
| 2026-05-05 12:03 | 46.84587 | 39.79368 | 34980 ft | 447 kts | 7° |
| 2026-05-05 12:04 | 46.90797 | 39.79918 | 34984 ft | 447 kts | 7° |
| 2026-05-05 12:04 | 46.97014 | 39.80469 | 34980 ft | 447 kts | 7° |
| 2026-05-05 12:05 | 47.03222 | 39.81022 | 34986 ft | 447 kts | 7° |
| 2026-05-05 12:05 | 47.09435 | 39.81575 | 34987 ft | 447 kts | 7° |
| 2026-05-05 12:06 | 47.15661 | 39.82131 | 34993 ft | 448 kts | 7° |
| 2026-05-05 12:06 | 47.21817 | 39.83240 | 34999 ft | 443 kts | 16° |
| 2026-05-05 12:07 | 47.27764 | 39.85378 | 35009 ft | 443 kts | 17° |
| 2026-05-05 12:07 | 47.33758 | 39.87499 | 35018 ft | 443 kts | 17° |
| 2026-05-05 12:08 | 47.39752 | 39.89637 | 35022 ft | 443 kts | 17° |
| 2026-05-05 12:08 | 47.45738 | 39.91786 | 35028 ft | 442 kts | 17° |
| 2026-05-05 12:09 | 47.51716 | 39.93960 | 35034 ft | 442 kts | 18° |
| 2026-05-05 12:09 | 47.57609 | 39.96504 | 35030 ft | 440 kts | 20° |
| 2026-05-05 12:10 | 47.63475 | 39.99103 | 35024 ft | 440 kts | 20° |
| 2026-05-05 12:10 | 47.69350 | 40.01661 | 35018 ft | 440 kts | 20° |
| 2026-05-05 12:11 | 47.75223 | 40.04207 | 35009 ft | 439 kts | 20° |
| 2026-05-05 12:11 | 47.81086 | 40.06755 | 34990 ft | 439 kts | 20° |
| 2026-05-05 12:12 | 47.86955 | 40.09311 | 34987 ft | 439 kts | 20° |
| 2026-05-05 12:12 | 47.92900 | 40.11270 | 34992 ft | 441 kts | 14° |
| 2026-05-05 12:13 | 47.98927 | 40.13049 | 34988 ft | 441 kts | 14° |
| 2026-05-05 12:13 | 48.04954 | 40.14837 | 34989 ft | 442 kts | 14° |
| 2026-05-05 12:14 | 48.11022 | 40.16406 | 34990 ft | 444 kts | 11° |
| 2026-05-05 12:14 | 48.17141 | 40.17657 | 35001 ft | 444 kts | 11° |
| 2026-05-05 12:15 | 48.23272 | 40.18927 | 34999 ft | 444 kts | 11° |
| 2026-05-05 12:15 | 48.29394 | 40.20195 | 35006 ft | 445 kts | 11° |
| 2026-05-05 12:16 | 48.35526 | 40.21466 | 35003 ft | 445 kts | 11° |
| 2026-05-05 12:16 | 48.41665 | 40.22741 | 35006 ft | 445 kts | 11° |
| 2026-05-05 12:17 | 48.47761 | 40.24011 | 35004 ft | 445 kts | 10° |
| 2026-05-05 12:17 | 48.53900 | 40.25291 | 35003 ft | 445 kts | 10° |
| 2026-05-05 12:18 | 48.60035 | 40.26573 | 35005 ft | 445 kts | 10° |
| 2026-05-05 12:18 | 48.66177 | 40.27860 | 35005 ft | 445 kts | 10° |
| 2026-05-05 12:19 | 48.72313 | 40.29148 | 35003 ft | 445 kts | 10° |
| 2026-05-05 12:19 | 48.78446 | 40.30440 | 34999 ft | 445 kts | 10° |
| 2026-05-05 12:20 | 48.84546 | 40.31727 | 34996 ft | 445 kts | 10° |
| 2026-05-05 12:20 | 48.90683 | 40.33026 | 34994 ft | 446 kts | 9° |
| 2026-05-05 12:21 | 48.96835 | 40.34336 | 34996 ft | 446 kts | 9° |
| 2026-05-05 12:21 | 49.02985 | 40.35648 | 34994 ft | 446 kts | 9° |
| 2026-05-05 12:22 | 49.09135 | 40.36963 | 34995 ft | 446 kts | 9° |
| 2026-05-05 12:22 | 49.15294 | 40.38283 | 34989 ft | 447 kts | 9° |
| 2026-05-05 12:23 | 49.21453 | 40.39607 | 34991 ft | 447 kts | 9° |
| 2026-05-05 12:23 | 49.27573 | 40.40925 | 34994 ft | 447 kts | 9° |
| 2026-05-05 12:24 | 49.33740 | 40.42257 | 34991 ft | 447 kts | 9° |
| 2026-05-05 12:24 | 49.39911 | 40.43593 | 34988 ft | 448 kts | 9° |
| 2026-05-05 12:25 | 49.46092 | 40.44934 | 34991 ft | 448 kts | 9° |
| 2026-05-05 12:25 | 49.52269 | 40.46274 | 34988 ft | 448 kts | 8° |
| 2026-05-05 12:26 | 49.58504 | 40.46837 | 34987 ft | 449 kts | 3° |
| 2026-05-05 12:26 | 49.64712 | 40.47267 | 34982 ft | 449 kts | 3° |
| 2026-05-05 12:27 | 49.70963 | 40.47700 | 34980 ft | 450 kts | 3° |
| 2026-05-05 12:27 | 49.77218 | 40.48127 | 34980 ft | 450 kts | 3° |
| 2026-05-05 12:28 | 49.83477 | 40.48554 | 34978 ft | 450 kts | 3° |
| 2026-05-05 12:28 | 49.89748 | 40.48983 | 34984 ft | 451 kts | 3° |
| 2026-05-05 12:29 | 49.96019 | 40.49413 | 34980 ft | 451 kts | 3° |
| 2026-05-05 12:29 | 50.02248 | 40.49842 | 34980 ft | 451 kts | 3° |
| 2026-05-05 12:30 | 50.08457 | 40.51192 | 34980 ft | 451 kts | 14° |
| 2026-05-05 12:30 | 50.14453 | 40.54049 | 34976 ft | 451 kts | 18° |
| 2026-05-05 12:31 | 50.20455 | 40.56986 | 34981 ft | 451 kts | 18° |
| 2026-05-05 12:31 | 50.26439 | 40.59941 | 34981 ft | 451 kts | 18° |
| 2026-05-05 12:32 | 50.32422 | 40.62916 | 34975 ft | 451 kts | 18° |
| 2026-05-05 12:32 | 50.38400 | 40.65900 | 34981 ft | 451 kts | 18° |
| 2026-05-05 12:33 | 50.44344 | 40.68876 | 34979 ft | 451 kts | 18° |
| 2026-05-05 12:33 | 50.50320 | 40.71873 | 34973 ft | 451 kts | 18° |
| 2026-05-05 12:34 | 50.55319 | 40.74388 | 34971 ft | 450 kts | 18° |
| 2026-05-05 12:34 | 50.61248 | 40.77376 | 34973 ft | 450 kts | 18° |